KDSM

Des Moines International Airport

Des Moines, Iowa, USA
METAR KDSM 171454Z 00000KT 10SM FEW015 M02/M03 A3029 RMK AO2 SLP268 I3000 T10221028 52001
Observed Flight Rules
Dec-17 @ 14:54 UTC (13 minutes ago) Visual Flight Rules
Visibility Clouds
10 miles
  • Few at 1,500' AGL
Temperatures Readings
Current -2°C / 28°F
Dewpoint -3°C / 27°F
Humidity 93%
Altimeter 30.29" Hg
Pressure 1026.8 hPa
Elevation 295
METAR KDSM 171454Z 00000KT 10SM FEW015 M02/M03 A3029 RMK AO2 SLP268 I3000 T10221028 52001
Observed Flight Rules
Dec-17 @ 14:54 UTC
(13 minutes ago)
VFR
Clouds
  • Few at 1,500' AGL
Temperature Dewpoint
-2°C / 28°F -3°C / 27°F
Humidity Altimeter Pressure
93% 30.29" Hg 1026.8 hPa